createdAt,value
2023-02-09T00:01:25.075Z,102906.13
2023-02-09T00:03:52.683Z,102897.53
2023-02-09T00:06:22.306Z,102883.75
2023-02-09T00:08:49.536Z,102884.75
2023-02-09T00:11:20.897Z,102881.09
2023-02-09T00:13:48.153Z,102884.50
2023-02-09T00:16:16.340Z,102887.13
2023-02-09T00:18:43.549Z,102883.66
2023-02-09T00:21:11.769Z,102886.22
2023-02-09T00:23:40.749Z,102881.06
2023-02-09T00:26:11.869Z,102871.50
2023-02-09T00:28:39.025Z,102871.50
2023-02-09T00:31:11.204Z,102868.03
2023-02-09T00:33:38.493Z,102866.31
2023-02-09T00:36:12.303Z,102865.41
2023-02-09T00:38:40.473Z,102859.31
2023-02-09T00:41:07.766Z,102852.53
2023-02-09T00:43:38.955Z,102847.38
2023-02-09T00:46:06.688Z,102843.81
2023-02-09T00:48:34.366Z,102846.38
2023-02-09T00:51:01.997Z,102854.84
2023-02-09T00:53:29.167Z,102855.63
2023-02-09T00:55:56.314Z,102854.75
2023-02-09T00:58:23.446Z,102846.97
2023-02-09T01:01:03.434Z,102845.22
2023-02-09T01:03:30.582Z,102835.59
2023-02-09T01:05:59.301Z,102843.28
2023-02-09T01:08:26.457Z,102840.75
2023-02-09T01:10:53.689Z,102839.81
2023-02-09T01:13:20.883Z,102832.00
2023-02-09T01:15:48.115Z,102824.19
2023-02-09T01:18:15.297Z,102833.59
2023-02-09T01:20:43.072Z,102835.16
2023-02-09T01:23:11.325Z,102831.63
2023-02-09T01:25:38.455Z,102828.25
2023-02-09T01:28:05.661Z,102829.00
2023-02-09T01:30:34.188Z,102829.03
2023-02-09T01:33:01.377Z,102823.84
2023-02-09T01:35:29.860Z,102809.91
2023-02-09T01:37:58.801Z,102812.50
2023-02-09T01:40:25.970Z,102815.88
2023-02-09T01:42:53.110Z,102798.63
2023-02-09T01:45:34.277Z,102796.81
2023-02-09T01:48:03.594Z,102789.78
2023-02-09T01:50:34.657Z,102792.25
2023-02-09T01:53:02.613Z,102787.94
2023-02-09T01:55:32.493Z,102787.09
2023-02-09T01:58:04.332Z,102782.03
2023-02-09T02:00:31.538Z,102772.56
2023-02-09T02:03:02.190Z,102774.22
2023-02-09T02:05:29.964Z,102762.13
2023-02-09T02:08:08.061Z,102754.25
2023-02-09T02:10:35.244Z,102755.84
2023-02-09T02:13:03.131Z,102752.28
2023-02-09T02:15:38.650Z,102754.94
2023-02-09T02:18:30.784Z,102750.59
2023-02-09T02:21:24.310Z,102749.59
2023-02-09T02:23:57.602Z,102753.00
2023-02-09T02:26:56.089Z,102742.59
2023-02-09T02:29:43.548Z,102742.69
2023-02-09T02:32:17.236Z,102732.22
2023-02-09T02:34:49.897Z,102736.47
2023-02-09T02:37:49.294Z,102726.09
2023-02-09T02:40:50.119Z,102726.09
2023-02-09T02:43:23.062Z,102732.00
2023-02-09T02:45:59.157Z,102725.94
2023-02-09T02:48:46.350Z,102715.53
2023-02-09T02:51:36.309Z,102720.72
2023-02-09T02:54:07.686Z,102713.81
2023-02-09T02:56:38.201Z,102703.47
2023-02-09T02:59:10.174Z,102702.41
2023-02-09T03:01:49.600Z,102703.22
2023-02-09T03:04:18.134Z,102698.09
2023-02-09T03:06:45.388Z,102696.38
2023-02-09T03:09:12.566Z,102700.72
2023-02-09T03:11:42.847Z,102694.66
2023-02-09T03:14:37.519Z,102704.97
2023-02-09T03:17:25.115Z,102698.19
2023-02-09T03:19:59.451Z,102699.50
2023-02-09T03:22:37.151Z,102694.38
2023-02-09T03:25:22.465Z,102697.78
2023-02-09T03:28:01.494Z,102695.28
2023-02-09T03:30:29.035Z,102694.50
2023-02-09T03:32:56.412Z,102692.84
2023-02-09T03:35:33.606Z,102683.44
2023-02-09T03:38:01.382Z,102675.59
2023-02-09T03:40:28.684Z,102668.78
2023-02-09T03:42:55.946Z,102667.06
2023-02-09T03:45:23.216Z,102667.97
2023-02-09T03:47:50.414Z,102664.50
2023-02-09T03:50:17.891Z,102658.44
2023-02-09T03:52:45.087Z,102661.88
2023-02-09T03:55:12.270Z,102661.88
2023-02-09T03:57:39.601Z,102669.63
2023-02-09T04:00:07.604Z,102663.63
2023-02-09T04:02:34.843Z,102655.00
2023-02-09T04:05:02.953Z,102664.47
2023-02-09T04:07:31.390Z,102655.09
2023-02-09T04:09:58.598Z,102659.34
2023-02-09T04:12:25.864Z,102659.41
2023-02-09T04:14:53.867Z,102660.28
2023-02-09T04:17:21.340Z,102662.84
2023-02-09T04:20:13.841Z,102651.72
2023-02-09T04:22:41.073Z,102658.47
2023-02-09T04:25:08.267Z,102646.44
2023-02-09T04:27:35.396Z,102657.56
2023-02-09T04:30:02.584Z,102653.25
2023-02-09T04:32:29.830Z,102638.69
2023-02-09T04:34:57.171Z,102642.13
2023-02-09T04:37:24.482Z,102645.31
2023-02-09T04:39:51.693Z,102659.03
2023-02-09T04:42:18.973Z,102649.56
2023-02-09T04:44:46.342Z,102651.34
2023-02-09T04:47:13.525Z,102647.00
2023-02-09T04:49:42.541Z,102640.16
2023-02-09T04:52:09.873Z,102646.88
2023-02-09T04:54:37.021Z,102644.28
2023-02-09T04:57:22.709Z,102636.59
2023-02-09T04:59:49.993Z,102634.06
2023-02-09T05:02:17.284Z,102637.28
2023-02-09T05:04:44.536Z,102641.31
2023-02-09T05:07:12.000Z,102639.75
2023-02-09T05:09:39.193Z,102643.31
2023-02-09T05:12:09.955Z,102635.56
2023-02-09T05:14:37.212Z,102646.56
2023-02-09T05:17:04.431Z,102635.47
2023-02-09T05:19:31.640Z,102632.81
2023-02-09T05:21:58.884Z,102639.72
2023-02-09T05:24:26.019Z,102632.91
2023-02-09T05:26:53.206Z,102616.69
2023-02-09T05:29:22.187Z,102621.72
2023-02-09T05:31:49.602Z,102615.78
2023-02-09T05:34:16.838Z,102623.25
2023-02-09T05:36:44.002Z,102628.25
2023-02-09T05:39:11.178Z,102622.72
2023-02-09T05:41:57.243Z,102617.44
2023-02-09T05:44:24.826Z,102621.03
2023-02-09T05:46:52.030Z,102624.72
2023-02-09T05:49:19.276Z,102618.72
2023-02-09T05:51:46.490Z,102616.25
2023-02-09T05:54:13.710Z,102624.84
2023-02-09T05:56:40.877Z,102624.16
2023-02-09T05:59:08.097Z,102625.59
2023-02-09T06:01:35.489Z,102629.09
2023-02-09T06:04:02.782Z,102624.03
2023-02-09T06:06:29.999Z,102622.38
2023-02-09T06:08:57.138Z,102625.03
2023-02-09T06:11:49.736Z,102625.13
2023-02-09T06:14:17.689Z,102627.69
2023-02-09T06:16:46.084Z,102632.69
2023-02-09T06:19:18.704Z,102626.66
2023-02-09T06:22:11.110Z,102617.38
2023-02-09T06:24:38.299Z,102619.16
2023-02-09T06:27:05.412Z,102620.13
2023-02-09T06:29:32.626Z,102626.09
2023-02-09T06:31:59.815Z,102625.16
2023-02-09T06:34:27.227Z,102627.94
2023-02-09T06:36:54.445Z,102622.00
2023-02-09T06:39:21.666Z,102628.94
2023-02-09T06:41:48.828Z,102627.22
2023-02-09T06:44:16.014Z,102629.84
2023-02-09T06:46:43.406Z,102624.81
2023-02-09T06:49:10.588Z,102624.69
2023-02-09T06:51:38.064Z,102623.56
2023-02-09T06:54:05.423Z,102640.09
2023-02-09T06:56:32.567Z,102634.06
2023-02-09T06:58:59.700Z,102633.94
2023-02-09T07:01:27.989Z,102625.31
2023-02-09T07:03:55.277Z,102635.69
2023-02-09T07:06:22.867Z,102635.47
2023-02-09T07:08:50.808Z,102644.13
2023-02-09T07:11:18.903Z,102640.63
2023-02-09T07:13:46.769Z,102645.03
2023-02-09T07:16:14.435Z,102644.31
2023-02-09T07:18:42.315Z,102636.59
2023-02-09T07:21:19.878Z,102637.53
2023-02-09T07:23:47.884Z,102634.97
2023-02-09T07:26:16.610Z,102633.00
2023-02-09T07:28:44.045Z,102630.56
2023-02-09T07:31:13.193Z,102625.66
2023-02-09T07:33:40.514Z,102627.56
2023-02-09T07:36:10.006Z,102633.81
2023-02-09T07:38:38.103Z,102621.88
2023-02-09T07:41:06.880Z,102639.38
2023-02-09T07:43:34.695Z,102647.22
2023-02-09T07:46:06.259Z,102639.56
2023-02-09T07:48:34.347Z,102630.19
2023-02-09T07:51:01.808Z,102632.00
2023-02-09T07:53:29.453Z,102627.88
2023-02-09T07:55:56.863Z,102631.38
2023-02-09T07:58:24.324Z,102631.34
2023-02-09T08:00:51.763Z,102635.53
2023-02-09T08:03:21.074Z,102630.38
2023-02-09T08:06:01.141Z,102624.56
2023-02-09T08:08:28.530Z,102621.31
2023-02-09T08:10:56.929Z,102616.25
2023-02-09T08:13:26.429Z,102619.63
2023-02-09T08:15:56.749Z,102621.28
2023-02-09T08:18:26.882Z,102621.44
2023-02-09T08:20:54.172Z,102629.78
2023-02-09T08:23:30.514Z,102622.41
2023-02-09T08:25:59.646Z,102616.63
2023-02-09T08:28:41.734Z,102618.53
2023-02-09T08:31:15.487Z,102612.94
2023-02-09T08:33:45.167Z,102616.66
2023-02-09T08:36:13.094Z,102616.69
2023-02-09T08:38:40.343Z,102613.31
2023-02-09T08:41:09.378Z,102619.56
2023-02-09T08:43:36.794Z,102612.78
2023-02-09T08:46:13.509Z,102618.00
2023-02-09T08:48:43.160Z,102607.88
2023-02-09T08:51:11.695Z,102605.63
2023-02-09T08:53:39.493Z,102605.84
2023-02-09T08:56:07.063Z,102606.78
2023-02-09T08:58:34.963Z,102608.66
2023-02-09T09:01:02.297Z,102607.94
2023-02-09T09:03:31.580Z,102617.50
2023-02-09T09:06:00.550Z,102623.63
2023-02-09T09:08:28.332Z,102605.63
2023-02-09T09:10:55.659Z,102601.50
2023-02-09T09:13:24.312Z,102602.53
2023-02-09T09:15:52.648Z,102603.69
2023-02-09T09:18:19.839Z,102615.94
2023-02-09T09:20:47.454Z,102599.78
2023-02-09T09:23:15.160Z,102593.84
2023-02-09T09:25:42.838Z,102595.66
2023-02-09T09:28:10.244Z,102599.22
2023-02-09T09:30:37.466Z,102599.50
2023-02-09T09:33:05.279Z,102592.75
2023-02-09T09:35:32.489Z,102596.19
2023-02-09T09:38:00.757Z,102591.91
2023-02-09T09:40:33.850Z,102585.94
2023-02-09T09:43:03.816Z,102572.31
2023-02-09T09:45:33.399Z,102576.81
2023-02-09T09:48:00.801Z,102586.44
2023-02-09T09:50:32.948Z,102579.56
2023-02-09T09:53:14.829Z,102583.25
2023-02-09T09:55:42.311Z,102568.81
2023-02-09T09:58:16.216Z,102575.91
2023-02-09T10:00:43.610Z,102557.06
2023-02-09T10:03:18.310Z,102552.94
2023-02-09T10:05:48.770Z,102544.47
2023-02-09T10:08:24.165Z,102547.19
2023-02-09T10:10:58.378Z,102550.69
2023-02-09T10:13:32.388Z,102560.19
2023-02-09T10:15:59.693Z,102552.28
2023-02-09T10:18:29.191Z,102542.84
2023-02-09T10:21:07.625Z,102552.50
2023-02-09T10:23:45.583Z,102543.97
2023-02-09T10:26:12.701Z,102545.66
2023-02-09T10:28:42.535Z,102543.72
2023-02-09T10:31:13.799Z,102543.81
2023-02-09T10:33:43.339Z,102532.75
2023-02-09T10:36:32.080Z,102527.69
2023-02-09T10:39:09.805Z,102527.81
2023-02-09T10:41:38.162Z,102546.13
2023-02-09T10:44:08.836Z,102535.91
2023-02-09T10:46:38.036Z,102531.66
2023-02-09T10:49:31.016Z,102522.03
2023-02-09T10:52:15.907Z,102508.22
2023-02-09T10:54:57.415Z,102505.78
2023-02-09T10:57:30.606Z,102499.91
2023-02-09T11:00:00.700Z,102496.41
2023-02-09T11:02:36.395Z,102501.69
2023-02-09T11:05:23.454Z,102481.84
2023-02-09T11:07:58.400Z,102463.72
2023-02-09T11:10:27.825Z,102445.72
2023-02-09T11:12:55.458Z,102441.53
2023-02-09T11:15:26.581Z,102446.81
2023-02-09T11:18:05.869Z,102448.72
2023-02-09T11:20:36.107Z,102433.28
2023-02-09T11:23:33.485Z,102445.50
2023-02-09T11:26:24.051Z,102435.97
2023-02-09T11:28:53.925Z,102442.06
2023-02-09T11:31:35.760Z,102442.06
2023-02-09T11:34:33.924Z,102444.72
2023-02-09T11:37:19.642Z,102443.00
2023-02-09T11:40:05.881Z,102440.38
2023-02-09T11:42:46.438Z,102444.75
2023-02-09T11:45:19.599Z,102449.09
2023-02-09T11:47:46.773Z,102436.94
2023-02-09T11:50:39.933Z,102445.63
2023-02-09T11:53:42.124Z,102444.75
2023-02-09T11:56:12.436Z,102449.06
2023-02-09T11:58:53.694Z,102437.78
2023-02-09T12:01:26.681Z,102424.66
2023-02-09T12:03:59.486Z,102441.94
2023-02-09T12:06:30.142Z,102428.84
2023-02-09T12:09:03.693Z,102434.72
2023-02-09T12:11:37.847Z,102435.34
2023-02-09T12:14:34.602Z,102422.63
2023-02-09T12:17:15.414Z,102439.19
2023-02-09T12:19:45.459Z,102420.78
2023-02-09T12:22:34.606Z,102424.91
2023-02-09T12:25:38.608Z,102424.63
2023-02-09T12:28:08.655Z,102406.56
2023-02-09T12:30:45.169Z,102410.84
2023-02-09T12:33:30.866Z,102416.09
2023-02-09T12:36:02.970Z,102402.59
2023-02-09T12:39:04.787Z,102401.91
2023-02-09T12:41:35.025Z,102395.31
2023-02-09T12:44:08.790Z,102394.06
2023-02-09T12:46:44.784Z,102399.03
2023-02-09T12:49:11.920Z,102405.53
2023-02-09T12:51:52.703Z,102398.69
2023-02-09T12:54:47.245Z,102394.09
2023-02-09T12:57:17.368Z,102384.56
2023-02-09T12:59:50.721Z,102391.56
2023-02-09T13:02:49.866Z,102391.94
2023-02-09T13:05:25.551Z,102413.06
2023-02-09T13:08:01.917Z,102415.41
2023-02-09T13:10:41.282Z,102403.22
2023-02-09T13:13:11.291Z,102412.44
2023-02-09T13:15:52.014Z,102410.94
2023-02-09T13:18:56.781Z,102417.91
2023-02-09T13:21:35.938Z,102434.50
2023-02-09T13:24:18.369Z,102424.16
2023-02-09T13:26:57.120Z,102421.06
2023-02-09T13:29:31.757Z,102415.38
2023-02-09T13:32:16.806Z,102429.88
2023-02-09T13:34:46.381Z,102440.91
2023-02-09T13:37:40.642Z,102441.22
2023-02-09T13:40:27.679Z,102428.06
2023-02-09T13:42:58.758Z,102433.31
2023-02-09T13:45:27.189Z,102432.34
2023-02-09T13:47:56.069Z,102428.47
2023-02-09T13:50:25.271Z,102418.81
2023-02-09T13:52:52.485Z,102412.13
2023-02-09T13:55:24.866Z,102400.25
2023-02-09T13:57:54.430Z,102394.25
2023-02-09T14:00:30.336Z,102402.25
2023-02-09T14:02:59.869Z,102388.28
2023-02-09T14:05:31.377Z,102383.19
2023-02-09T14:07:59.186Z,102371.50
2023-02-09T14:10:28.099Z,102370.56
2023-02-09T14:13:00.734Z,102371.03
2023-02-09T14:16:00.087Z,102372.41
2023-02-09T14:18:30.314Z,102380.16
2023-02-09T14:21:14.385Z,102384.41
2023-02-09T14:23:49.563Z,102381.00
2023-02-09T14:26:25.122Z,102383.69
2023-02-09T14:29:03.784Z,102355.75
2023-02-09T14:31:34.256Z,102366.91
2023-02-09T14:34:01.450Z,102371.31
2023-02-09T14:36:32.414Z,102388.06
2023-02-09T14:39:16.705Z,102395.47
2023-02-09T14:42:01.843Z,102403.53
2023-02-09T14:44:29.922Z,102402.84
2023-02-09T14:46:59.174Z,102400.34
2023-02-09T14:49:27.397Z,102407.28
2023-02-09T14:52:15.050Z,102404.75
2023-02-09T14:54:46.987Z,102406.53
2023-02-09T14:57:14.182Z,102401.38
2023-02-09T14:59:41.429Z,102408.41
2023-02-09T15:02:23.929Z,102398.13
2023-02-09T15:04:51.307Z,102400.75
2023-02-09T15:07:21.252Z,102386.03
2023-02-09T15:09:49.068Z,102398.31
2023-02-09T15:12:42.678Z,102394.84
2023-02-09T15:15:14.411Z,102395.00
2023-02-09T15:17:41.688Z,102375.09
2023-02-09T15:20:12.843Z,102369.91
2023-02-09T15:22:40.041Z,102355.22
2023-02-09T15:25:07.241Z,102358.75
2023-02-09T15:27:43.637Z,102351.00
2023-02-09T15:30:24.402Z,102367.50
2023-02-09T15:32:52.094Z,102374.44
2023-02-09T15:35:25.189Z,102360.53
2023-02-09T15:37:57.982Z,102345.81
2023-02-09T15:40:51.234Z,102357.97
2023-02-09T15:43:38.637Z,102365.81
2023-02-09T15:46:25.024Z,102377.09
2023-02-09T15:48:52.200Z,102371.91
2023-02-09T15:51:19.747Z,102371.03
2023-02-09T15:53:47.213Z,102359.72
2023-02-09T15:56:15.418Z,102358.88
2023-02-09T15:58:44.861Z,102358.91
2023-02-09T16:01:13.689Z,102349.34
2023-02-09T16:03:41.202Z,102333.72
2023-02-09T16:06:26.532Z,102338.94
2023-02-09T16:08:53.958Z,102355.41
2023-02-09T16:11:32.749Z,102354.56
2023-02-09T16:14:00.012Z,102351.94
2023-02-09T16:16:28.278Z,102340.69
2023-02-09T16:18:55.496Z,102333.75
2023-02-09T16:21:24.144Z,102330.25
2023-02-09T16:23:52.890Z,102321.59
2023-02-09T16:26:21.036Z,102323.31
2023-02-09T16:28:48.348Z,102326.78
2023-02-09T16:31:15.693Z,102337.19
2023-02-09T16:33:43.438Z,102347.56
2023-02-09T16:36:15.607Z,102351.84
2023-02-09T16:38:43.182Z,102363.06
2023-02-09T16:41:33.924Z,102362.16
2023-02-09T16:44:02.198Z,102362.16
2023-02-09T16:46:30.816Z,102355.25
2023-02-09T16:48:58.789Z,102350.88
2023-02-09T16:51:25.977Z,102351.72
2023-02-09T16:53:53.148Z,102352.63
2023-02-09T16:56:20.549Z,102353.47
2023-02-09T16:58:48.102Z,102360.34
2023-02-09T17:01:18.559Z,102365.53
2023-02-09T17:03:48.610Z,102376.75
2023-02-09T17:06:21.737Z,102375.06
2023-02-09T17:08:49.451Z,102380.25
2023-02-09T17:11:19.357Z,102371.50
2023-02-09T17:13:46.680Z,102368.81
2023-02-09T17:16:25.763Z,102373.97
2023-02-09T17:18:59.282Z,102381.78
2023-02-09T17:21:28.389Z,102380.97
2023-02-09T17:23:57.484Z,102394.72
2023-02-09T17:26:24.902Z,102386.03
2023-02-09T17:28:52.216Z,102380.81
2023-02-09T17:31:23.954Z,102377.34
2023-02-09T17:33:53.262Z,102373.00
2023-02-09T17:36:26.935Z,102375.59
2023-02-09T17:38:56.899Z,102373.81
2023-02-09T17:41:34.275Z,102372.13
2023-02-09T17:44:24.227Z,102371.31
2023-02-09T17:46:56.324Z,102386.88
2023-02-09T17:49:23.583Z,102379.06
2023-02-09T17:51:51.496Z,102388.59
2023-02-09T17:54:20.588Z,102384.22
2023-02-09T17:56:47.809Z,102389.41
2023-02-09T17:59:19.418Z,102387.66
2023-02-09T18:01:49.529Z,102380.75
2023-02-09T18:04:21.475Z,102378.13
2023-02-09T18:06:49.039Z,102384.97
2023-02-09T18:09:16.401Z,102392.69
2023-02-09T18:11:46.311Z,102392.63
2023-02-09T18:14:15.637Z,102395.25
2023-02-09T18:16:43.472Z,102397.78
2023-02-09T18:19:11.797Z,102415.06
2023-02-09T18:21:44.910Z,102404.66
2023-02-09T18:24:12.125Z,102404.59
2023-02-09T18:26:39.305Z,102402.00
2023-02-09T18:29:06.483Z,102395.97
2023-02-09T18:31:34.486Z,102390.78
2023-02-09T18:34:02.077Z,102396.81
2023-02-09T18:36:29.398Z,102388.97
2023-02-09T18:38:56.676Z,102397.69
2023-02-09T18:41:24.720Z,102389.03
2023-02-09T18:43:54.173Z,102389.03
2023-02-09T18:46:24.372Z,102384.69
2023-02-09T18:48:51.700Z,102381.25
2023-02-09T18:51:18.939Z,102387.31
2023-02-09T18:53:46.224Z,102381.25
2023-02-09T18:56:20.783Z,102379.44
2023-02-09T18:58:50.008Z,102387.19
2023-02-09T19:01:19.665Z,102383.78
2023-02-09T19:03:50.202Z,102382.91
2023-02-09T19:06:17.939Z,102384.69
2023-02-09T19:08:45.136Z,102383.72
2023-02-09T19:11:14.203Z,102380.22
2023-02-09T19:13:41.546Z,102373.31
2023-02-09T19:16:12.820Z,102379.31
2023-02-09T19:18:40.008Z,102380.13
2023-02-09T19:21:09.615Z,102381.78
2023-02-09T19:23:37.071Z,102380.03
2023-02-09T19:26:05.773Z,102380.09
2023-02-09T19:28:35.003Z,102372.28
2023-02-09T19:31:02.369Z,102373.94
2023-02-09T19:33:29.492Z,102373.09
2023-02-09T19:35:57.751Z,102376.59
2023-02-09T19:38:26.432Z,102373.94
2023-02-09T19:41:08.527Z,102384.38
2023-02-09T19:43:37.977Z,102393.81
2023-02-09T19:46:05.711Z,102387.75
2023-02-09T19:48:33.213Z,102385.22
2023-02-09T19:51:00.416Z,102373.91
2023-02-09T19:53:27.833Z,102367.75
2023-02-09T19:55:55.110Z,102371.22
2023-02-09T19:58:22.473Z,102364.31
2023-02-09T20:00:51.002Z,102372.06
2023-02-09T20:03:18.731Z,102367.81
2023-02-09T20:05:46.507Z,102362.63
2023-02-09T20:08:18.841Z,102362.56
2023-02-09T20:10:46.544Z,102364.19
2023-02-09T20:13:14.759Z,102362.41
2023-02-09T20:15:43.460Z,102363.22
2023-02-09T20:18:12.193Z,102372.78
2023-02-09T20:20:41.567Z,102365.81
2023-02-09T20:23:09.616Z,102375.38
2023-02-09T20:25:40.399Z,102371.00
2023-02-09T20:28:07.808Z,102375.31
2023-02-09T20:30:35.406Z,102372.66
2023-02-09T20:33:02.622Z,102374.34
2023-02-09T20:35:29.810Z,102375.16
2023-02-09T20:37:57.032Z,102368.25
2023-02-09T20:40:24.235Z,102364.91
2023-02-09T20:43:10.401Z,102370.84
2023-02-09T20:45:56.102Z,102376.97
2023-02-09T20:48:23.206Z,102366.63
2023-02-09T20:50:50.336Z,102372.63
2023-02-09T20:53:17.576Z,102377.81
2023-02-09T20:55:44.791Z,102373.38
2023-02-09T20:58:13.639Z,102371.69
2023-02-09T21:00:42.308Z,102376.06
2023-02-09T21:03:09.567Z,102373.47
2023-02-09T21:05:36.867Z,102381.19
2023-02-09T21:08:04.555Z,102382.06
2023-02-09T21:10:37.948Z,102381.13
2023-02-09T21:13:06.282Z,102384.72
2023-02-09T21:15:33.563Z,102385.50
2023-02-09T21:18:00.833Z,102386.31
2023-02-09T21:20:28.056Z,102381.03
2023-02-09T21:22:55.254Z,102382.72
2023-02-09T21:25:22.415Z,102390.56
2023-02-09T21:27:49.664Z,102399.19
2023-02-09T21:30:16.838Z,102401.78
2023-02-09T21:32:44.304Z,102391.56
2023-02-09T21:35:11.520Z,102400.22
2023-02-09T21:37:39.315Z,102397.59
2023-02-09T21:40:07.238Z,102400.13
2023-02-09T21:42:36.732Z,102396.59
2023-02-09T21:45:04.439Z,102399.25
2023-02-09T21:47:33.946Z,102399.25
2023-02-09T21:50:01.323Z,102398.38
2023-02-09T21:52:29.855Z,102394.88
2023-02-09T21:54:57.662Z,102391.50
2023-02-09T21:57:25.984Z,102390.69
2023-02-09T21:59:53.647Z,102386.44
2023-02-09T22:02:21.076Z,102384.59
2023-02-09T22:04:50.096Z,102388.03
2023-02-09T22:07:17.318Z,102390.69
2023-02-09T22:09:44.466Z,102390.72
2023-02-09T22:12:11.691Z,102391.59
2023-02-09T22:14:38.905Z,102389.03
2023-02-09T22:17:06.098Z,102393.38
2023-02-09T22:19:33.272Z,102396.84
2023-02-09T22:22:01.514Z,102404.63
2023-02-09T22:24:29.992Z,102404.63
2023-02-09T22:26:57.755Z,102413.25
2023-02-09T22:29:25.270Z,102410.72
2023-02-09T22:31:52.529Z,102416.81
2023-02-09T22:34:19.688Z,102416.06
2023-02-09T22:36:46.892Z,102412.59
2023-02-09T22:39:14.034Z,102411.84
2023-02-09T22:41:44.287Z,102416.22
2023-02-09T22:44:12.494Z,102408.44
2023-02-09T22:46:41.399Z,102417.94
2023-02-09T22:49:13.182Z,102419.72
2023-02-09T22:51:40.377Z,102425.78
2023-02-09T22:54:07.575Z,102432.69
2023-02-09T22:56:35.167Z,102431.06
2023-02-09T22:59:02.352Z,102426.69
2023-02-09T23:01:30.131Z,102431.88
2023-02-09T23:03:57.862Z,102425.06
2023-02-09T23:06:27.300Z,102424.19
2023-02-09T23:08:56.614Z,102431.97
2023-02-09T23:11:23.879Z,102425.19
2023-02-09T23:14:03.807Z,102419.97
2023-02-09T23:16:36.064Z,102421.69
2023-02-09T23:19:07.223Z,102422.63
2023-02-09T23:21:36.984Z,102424.34
2023-02-09T23:24:04.469Z,102420.06
2023-02-09T23:26:31.795Z,102427.94
2023-02-09T23:29:00.639Z,102417.50
2023-02-09T23:31:28.756Z,102424.44
2023-02-09T23:33:56.097Z,102427.03
2023-02-09T23:36:25.455Z,102420.97
2023-02-09T23:38:57.309Z,102423.56
2023-02-09T23:41:25.160Z,102426.28
2023-02-09T23:43:52.952Z,102426.28
2023-02-09T23:46:22.355Z,102422.00
2023-02-09T23:48:54.804Z,102421.97
2023-02-09T23:51:26.409Z,102422.84
2023-02-09T23:53:55.033Z,102422.78
2023-02-09T23:56:22.417Z,102427.19
2023-02-09T23:58:50.908Z,102425.56
